createdAt,value
2022-12-15T00:00:30.735Z,63.12
2022-12-15T00:04:09.827Z,63.09
2022-12-15T00:07:50.214Z,62.84
2022-12-15T00:11:29.163Z,63.14
2022-12-15T00:15:08.548Z,63.22
2022-12-15T00:18:47.500Z,62.98
2022-12-15T00:22:26.206Z,63.19
2022-12-15T00:26:06.723Z,63.12
2022-12-15T00:29:45.485Z,62.71
2022-12-15T00:33:29.894Z,62.54
2022-12-15T00:37:09.275Z,62.61
2022-12-15T00:40:30.736Z,62.80
2022-12-15T00:43:53.867Z,62.87
2022-12-15T00:47:15.403Z,62.69
2022-12-15T00:50:54.382Z,62.53
2022-12-15T00:54:33.549Z,62.57
2022-12-15T00:58:13.085Z,62.00
2022-12-15T01:01:53.675Z,61.96
2022-12-15T01:05:32.976Z,62.09
2022-12-15T01:09:11.770Z,61.82
2022-12-15T01:12:50.703Z,62.05
2022-12-15T01:16:30.523Z,62.24
2022-12-15T01:20:10.801Z,62.49
2022-12-15T01:23:33.288Z,63.13
2022-12-15T01:26:56.178Z,62.68
2022-12-15T01:30:21.162Z,62.75
2022-12-15T01:33:43.778Z,62.70
2022-12-15T01:37:06.815Z,62.47
2022-12-15T01:40:46.227Z,62.66
2022-12-15T01:44:23.696Z,62.93
2022-12-15T01:47:45.511Z,62.64
2022-12-15T01:51:12.471Z,62.67
2022-12-15T01:54:40.106Z,62.66
2022-12-15T01:58:05.131Z,61.99
2022-12-15T02:01:27.216Z,61.89
2022-12-15T02:04:50.855Z,61.95
2022-12-15T02:08:13.062Z,61.91
2022-12-15T02:11:49.157Z,61.90
2022-12-15T02:15:20.329Z,61.44
2022-12-15T02:18:52.463Z,62.14
2022-12-15T02:22:27.976Z,61.92
2022-12-15T02:26:11.034Z,62.28
2022-12-15T02:29:58.885Z,62.15
2022-12-15T02:33:27.330Z,62.24
2022-12-15T02:36:52.800Z,62.48
2022-12-15T02:40:14.429Z,62.83
2022-12-15T02:43:39.984Z,62.77
2022-12-15T02:47:28.154Z,63.15
2022-12-15T02:51:06.945Z,62.98
2022-12-15T02:54:47.947Z,62.52
2022-12-15T02:58:16.257Z,62.44
2022-12-15T03:01:42.798Z,62.47
2022-12-15T03:05:05.770Z,62.22
2022-12-15T03:08:28.917Z,62.38
2022-12-15T03:11:50.973Z,61.61
2022-12-15T03:15:12.937Z,61.80
2022-12-15T03:18:34.402Z,61.72
2022-12-15T03:21:56.130Z,61.89
2022-12-15T03:25:19.514Z,62.07
2022-12-15T03:28:41.165Z,62.55
2022-12-15T03:32:03.322Z,62.48
2022-12-15T03:35:25.290Z,63.39
2022-12-15T03:38:46.723Z,63.60
2022-12-15T03:42:10.204Z,62.78
2022-12-15T03:45:32.250Z,63.21
2022-12-15T03:48:54.072Z,63.25
2022-12-15T03:52:15.846Z,63.45
2022-12-15T03:55:37.705Z,63.49
2022-12-15T03:59:00.583Z,63.57
2022-12-15T04:02:22.679Z,64.38
2022-12-15T04:05:44.692Z,65.07
2022-12-15T04:09:06.504Z,63.72
2022-12-15T04:12:28.282Z,63.42
2022-12-15T04:15:51.569Z,63.83
2022-12-15T04:19:30.566Z,63.69
2022-12-15T04:22:52.727Z,63.61
2022-12-15T04:26:32.667Z,63.81
2022-12-15T04:30:11.440Z,62.96
2022-12-15T04:33:52.599Z,63.28
2022-12-15T04:37:33.066Z,62.67
2022-12-15T04:41:12.165Z,63.01
2022-12-15T04:44:51.457Z,61.83
2022-12-15T04:48:31.287Z,62.22
2022-12-15T04:52:11.736Z,61.11
2022-12-15T04:55:53.669Z,61.22
2022-12-15T04:59:32.986Z,60.65
2022-12-15T05:03:17.930Z,61.54
2022-12-15T05:06:57.290Z,62.24
2022-12-15T05:10:37.726Z,62.21
2022-12-15T05:14:16.642Z,62.00
2022-12-15T05:17:55.704Z,62.58
2022-12-15T05:21:34.595Z,62.32
2022-12-15T05:25:13.840Z,62.56
2022-12-15T05:28:54.418Z,62.72
2022-12-15T05:32:16.058Z,62.23
2022-12-15T05:35:37.753Z,62.93
2022-12-15T05:38:59.572Z,62.92
2022-12-15T05:42:21.596Z,64.21
2022-12-15T05:45:44.703Z,64.17
2022-12-15T05:49:07.494Z,64.09
2022-12-15T05:52:29.280Z,64.42
2022-12-15T05:55:50.980Z,64.99
2022-12-15T05:59:13.249Z,64.48
2022-12-15T06:02:36.372Z,65.30
2022-12-15T06:05:58.245Z,65.97
2022-12-15T06:09:20.189Z,65.74
2022-12-15T06:12:42.296Z,66.05
2022-12-15T06:16:06.513Z,65.87
2022-12-15T06:19:29.473Z,66.54
2022-12-15T06:22:51.219Z,66.68
2022-12-15T06:26:16.130Z,67.05
2022-12-15T06:29:37.961Z,67.32
2022-12-15T06:32:59.855Z,67.23
2022-12-15T06:36:24.842Z,67.14
2022-12-15T06:39:46.708Z,67.22
2022-12-15T06:43:09.334Z,67.38
2022-12-15T06:46:32.792Z,68.04
2022-12-15T06:49:55.429Z,68.44
2022-12-15T06:53:20.233Z,69.43
2022-12-15T06:56:42.415Z,69.73
2022-12-15T07:00:06.263Z,70.71
2022-12-15T07:03:28.578Z,71.33
2022-12-15T07:06:51.348Z,71.53
2022-12-15T07:10:14.827Z,71.83
2022-12-15T07:13:38.351Z,72.33
2022-12-15T07:17:00.426Z,72.68
2022-12-15T07:20:27.114Z,73.21
2022-12-15T07:23:55.740Z,73.22
2022-12-15T07:27:19.447Z,72.77
2022-12-15T07:30:41.089Z,72.40
2022-12-15T07:34:04.918Z,72.29
2022-12-15T07:37:26.468Z,71.86
2022-12-15T07:40:49.178Z,72.38
2022-12-15T07:44:12.502Z,72.44
2022-12-15T07:47:34.686Z,72.37
2022-12-15T07:51:07.236Z,72.35
2022-12-15T07:54:29.405Z,72.51
2022-12-15T07:57:51.020Z,72.11
2022-12-15T08:01:15.563Z,72.11
2022-12-15T08:04:37.394Z,72.50
2022-12-15T08:07:59.361Z,73.54
2022-12-15T08:11:24.586Z,73.66
2022-12-15T08:14:46.302Z,74.12
2022-12-15T08:18:13.439Z,74.46
2022-12-15T08:21:35.442Z,74.02
2022-12-15T08:24:56.844Z,72.91
2022-12-15T08:28:19.547Z,73.20
2022-12-15T08:31:41.817Z,72.91
2022-12-15T08:35:19.921Z,73.02
2022-12-15T08:38:48.429Z,73.82
2022-12-15T08:42:10.417Z,72.65
2022-12-15T08:45:32.403Z,72.68
2022-12-15T08:48:54.582Z,73.89
2022-12-15T08:52:17.722Z,72.63
2022-12-15T08:55:40.618Z,72.27
2022-12-15T08:59:03.339Z,72.17
2022-12-15T09:02:25.138Z,72.04
2022-12-15T09:05:46.943Z,73.62
2022-12-15T09:09:14.635Z,72.45
2022-12-15T09:12:36.497Z,72.60
2022-12-15T09:16:13.999Z,72.32
2022-12-15T09:19:36.575Z,73.57
2022-12-15T09:22:58.988Z,73.06
2022-12-15T09:26:24.278Z,73.55
2022-12-15T09:29:46.323Z,72.77
2022-12-15T09:33:08.344Z,72.94
2022-12-15T09:36:32.765Z,73.04
2022-12-15T09:39:54.816Z,72.17
2022-12-15T09:43:42.863Z,72.83
2022-12-15T09:47:17.483Z,72.88
2022-12-15T09:50:42.012Z,72.92
2022-12-15T09:54:04.384Z,72.41
2022-12-15T09:57:41.526Z,72.66
2022-12-15T10:01:14.488Z,72.46
2022-12-15T10:04:44.799Z,72.94
2022-12-15T10:08:07.275Z,73.04
2022-12-15T10:11:50.247Z,72.79
2022-12-15T10:15:24.078Z,72.91
2022-12-15T10:19:01.190Z,73.10
2022-12-15T10:22:26.814Z,72.93
2022-12-15T10:25:51.819Z,73.30
2022-12-15T10:29:37.560Z,73.14
2022-12-15T10:33:03.753Z,73.51
2022-12-15T10:36:27.051Z,72.97
2022-12-15T10:39:51.516Z,73.17
2022-12-15T10:43:16.372Z,72.82
2022-12-15T10:46:37.995Z,72.89
2022-12-15T10:50:24.253Z,72.79
2022-12-15T10:53:51.257Z,73.21
2022-12-15T10:57:18.691Z,73.18
2022-12-15T11:00:41.051Z,72.61
2022-12-15T11:04:02.919Z,73.35
2022-12-15T11:07:26.328Z,72.64
2022-12-15T11:11:11.174Z,73.64
2022-12-15T11:14:43.921Z,73.46
2022-12-15T11:18:12.834Z,74.23
2022-12-15T11:21:40.752Z,73.89
2022-12-15T11:25:13.357Z,73.60
2022-12-15T11:28:43.935Z,73.80
2022-12-15T11:32:07.768Z,73.46
2022-12-15T11:35:43.957Z,73.80
2022-12-15T11:39:14.211Z,73.49
2022-12-15T11:42:47.616Z,73.23
2022-12-15T11:46:23.891Z,72.99
2022-12-15T11:50:17.840Z,72.65
2022-12-15T11:54:11.296Z,73.61
2022-12-15T11:57:53.219Z,73.72
2022-12-15T12:01:34.762Z,74.48
2022-12-15T12:05:15.550Z,73.76
2022-12-15T12:09:01.741Z,73.32
2022-12-15T12:12:30.458Z,74.76
2022-12-15T12:15:58.910Z,74.13
2022-12-15T12:19:26.499Z,74.18
2022-12-15T12:22:56.135Z,73.19
2022-12-15T12:26:24.491Z,74.02
2022-12-15T12:29:50.159Z,73.80
2022-12-15T12:33:21.643Z,73.44
2022-12-15T12:36:48.930Z,73.83
2022-12-15T12:40:20.019Z,73.08
2022-12-15T12:43:45.419Z,73.64
2022-12-15T12:47:20.548Z,73.86
2022-12-15T12:50:42.639Z,73.75
2022-12-15T12:54:40.370Z,72.93
2022-12-15T12:58:02.362Z,73.68
2022-12-15T13:01:28.781Z,73.58
2022-12-15T13:04:52.831Z,73.87
2022-12-15T13:08:34.153Z,74.00
2022-12-15T13:12:15.022Z,73.86
2022-12-15T13:15:45.273Z,73.91
2022-12-15T13:19:09.446Z,74.13
2022-12-15T13:22:34.528Z,73.48
2022-12-15T13:26:12.568Z,74.30
2022-12-15T13:29:37.387Z,73.89
2022-12-15T13:33:18.525Z,74.11
2022-12-15T13:36:58.570Z,74.32
2022-12-15T13:40:36.726Z,74.03
2022-12-15T13:44:01.539Z,73.59
2022-12-15T13:47:27.469Z,74.00
2022-12-15T13:50:57.379Z,73.83
2022-12-15T13:54:24.903Z,73.60
2022-12-15T13:57:56.634Z,73.67
2022-12-15T14:01:32.700Z,72.82
2022-12-15T14:05:15.254Z,73.33
2022-12-15T14:08:37.088Z,73.08
2022-12-15T14:12:02.705Z,72.55
2022-12-15T14:15:29.304Z,73.10
2022-12-15T14:19:05.951Z,72.83
2022-12-15T14:22:30.944Z,72.31
2022-12-15T14:25:58.516Z,72.39
2022-12-15T14:29:20.980Z,72.46
2022-12-15T14:32:45.327Z,73.22
2022-12-15T14:36:11.810Z,72.19
2022-12-15T14:39:40.814Z,72.06
2022-12-15T14:43:02.444Z,72.49
2022-12-15T14:46:28.450Z,73.24
2022-12-15T14:49:51.134Z,73.61
2022-12-15T14:53:16.952Z,73.58
2022-12-15T14:56:40.870Z,72.59
2022-12-15T15:00:26.704Z,73.33
2022-12-15T15:03:57.560Z,73.31
2022-12-15T15:07:20.871Z,73.17
2022-12-15T15:10:44.188Z,73.09
2022-12-15T15:14:12.412Z,72.66
2022-12-15T15:17:38.579Z,72.89
2022-12-15T15:21:03.340Z,72.46
2022-12-15T15:24:30.875Z,72.93
2022-12-15T15:27:52.443Z,73.44
2022-12-15T15:31:32.678Z,72.93
2022-12-15T15:34:58.495Z,73.25
2022-12-15T15:38:27.068Z,73.26
2022-12-15T15:41:48.932Z,73.81
2022-12-15T15:45:13.753Z,73.10
2022-12-15T15:48:40.775Z,73.29
2022-12-15T15:52:02.980Z,73.90
2022-12-15T15:55:28.775Z,73.61
2022-12-15T15:58:50.208Z,72.52
2022-12-15T16:02:14.509Z,72.90
2022-12-15T16:05:38.051Z,72.28
2022-12-15T16:09:00.202Z,72.17
2022-12-15T16:12:27.709Z,72.89
2022-12-15T16:15:50.560Z,72.85
2022-12-15T16:19:13.141Z,72.05
2022-12-15T16:22:36.361Z,72.48
2022-12-15T16:26:00.276Z,73.12
2022-12-15T16:29:22.457Z,71.80
2022-12-15T16:32:44.208Z,73.00
2022-12-15T16:36:11.627Z,72.90
2022-12-15T16:39:36.840Z,72.28
2022-12-15T16:43:01.310Z,72.32
2022-12-15T16:46:23.027Z,73.19
2022-12-15T16:49:45.271Z,73.13
2022-12-15T16:53:11.214Z,72.75
2022-12-15T16:56:34.502Z,73.35
2022-12-15T16:59:56.740Z,73.31
2022-12-15T17:03:23.209Z,73.18
2022-12-15T17:06:45.480Z,73.26
2022-12-15T17:10:08.478Z,74.34
2022-12-15T17:13:41.948Z,73.92
2022-12-15T17:17:13.598Z,73.60
2022-12-15T17:20:35.073Z,73.56
2022-12-15T17:24:00.018Z,73.73
2022-12-15T17:27:27.980Z,73.17
2022-12-15T17:30:51.993Z,73.74
2022-12-15T17:34:27.118Z,73.31
2022-12-15T17:37:48.898Z,73.43
2022-12-15T17:41:35.128Z,73.36
2022-12-15T17:44:55.648Z,73.95
2022-12-15T17:48:19.230Z,74.18
2022-12-15T17:51:42.051Z,73.96
2022-12-15T17:55:05.630Z,73.63
2022-12-15T17:58:28.163Z,73.66
2022-12-15T18:01:49.924Z,73.41
2022-12-15T18:05:16.066Z,73.51
2022-12-15T18:08:38.060Z,73.08
2022-12-15T18:11:59.666Z,73.09
2022-12-15T18:15:23.385Z,72.78
2022-12-15T18:18:46.628Z,73.08
2022-12-15T18:22:15.226Z,72.62
2022-12-15T18:25:36.814Z,72.86
2022-12-15T18:28:58.682Z,72.39
2022-12-15T18:32:23.889Z,72.36
2022-12-15T18:35:46.865Z,72.57
2022-12-15T18:39:18.202Z,72.75
2022-12-15T18:42:40.507Z,72.54
2022-12-15T18:46:02.617Z,72.79
2022-12-15T18:49:24.501Z,72.31
2022-12-15T18:52:46.567Z,72.27
2022-12-15T18:56:09.952Z,72.08
2022-12-15T18:59:31.687Z,72.00
2022-12-15T19:02:55.131Z,71.90
2022-12-15T19:06:26.007Z,71.91
2022-12-15T19:09:47.971Z,72.12
2022-12-15T19:13:15.118Z,72.28
2022-12-15T19:16:50.543Z,72.01
2022-12-15T19:20:35.942Z,71.87
2022-12-15T19:23:57.992Z,72.34
2022-12-15T19:27:23.248Z,72.35
2022-12-15T19:30:47.403Z,72.29
2022-12-15T19:34:09.365Z,71.50
2022-12-15T19:37:32.061Z,71.60
2022-12-15T19:40:55.408Z,71.72
2022-12-15T19:44:17.447Z,71.60
2022-12-15T19:47:40.550Z,71.72
2022-12-15T19:51:02.477Z,71.86
2022-12-15T19:54:25.058Z,71.56
2022-12-15T19:57:46.600Z,71.97
2022-12-15T20:01:12.245Z,71.36
2022-12-15T20:04:35.778Z,71.35
2022-12-15T20:07:57.748Z,71.69
2022-12-15T20:11:21.657Z,71.68
2022-12-15T20:14:43.398Z,71.30
2022-12-15T20:18:05.251Z,71.49
2022-12-15T20:21:32.453Z,72.07
2022-12-15T20:24:54.100Z,71.87
2022-12-15T20:28:21.807Z,71.37
2022-12-15T20:31:43.576Z,72.00
2022-12-15T20:35:06.000Z,71.71
2022-12-15T20:38:34.231Z,71.79
2022-12-15T20:41:57.014Z,72.51
2022-12-15T20:45:20.784Z,72.20
2022-12-15T20:48:43.112Z,72.29
2022-12-15T20:52:05.110Z,72.13
2022-12-15T20:55:28.153Z,73.11
2022-12-15T20:58:50.703Z,72.54
2022-12-15T21:02:19.502Z,71.23
2022-12-15T21:05:41.431Z,71.69
2022-12-15T21:09:03.222Z,71.08
2022-12-15T21:12:28.610Z,70.96
2022-12-15T21:15:50.250Z,70.51
2022-12-15T21:19:21.730Z,70.62
2022-12-15T21:22:44.390Z,70.49
2022-12-15T21:26:06.588Z,70.47
2022-12-15T21:29:30.781Z,71.02
2022-12-15T21:32:52.555Z,70.38
2022-12-15T21:36:15.208Z,71.53
2022-12-15T21:39:40.362Z,71.62
2022-12-15T21:43:05.872Z,71.13
2022-12-15T21:46:30.046Z,71.29
2022-12-15T21:49:52.964Z,71.16
2022-12-15T21:53:18.488Z,70.99
2022-12-15T21:56:40.810Z,70.62
2022-12-15T22:00:02.765Z,71.52
2022-12-15T22:03:37.190Z,70.66
2022-12-15T22:06:58.702Z,71.58
2022-12-15T22:10:21.142Z,71.26
2022-12-15T22:13:43.545Z,71.12
2022-12-15T22:17:17.195Z,70.64
2022-12-15T22:20:42.472Z,70.93
2022-12-15T22:24:05.404Z,70.90
2022-12-15T22:27:27.821Z,70.88
2022-12-15T22:30:50.434Z,70.60
2022-12-15T22:34:18.209Z,71.01
2022-12-15T22:37:41.561Z,70.74
2022-12-15T22:41:04.468Z,71.03
2022-12-15T22:44:28.370Z,71.39
2022-12-15T22:47:51.183Z,70.91
2022-12-15T22:51:16.513Z,71.26
2022-12-15T22:54:46.327Z,70.84
2022-12-15T22:58:11.834Z,70.11
2022-12-15T23:01:33.499Z,71.07
2022-12-15T23:04:55.237Z,71.16
2022-12-15T23:08:17.122Z,71.17
2022-12-15T23:11:41.435Z,71.43
2022-12-15T23:15:32.014Z,70.09
2022-12-15T23:18:55.151Z,70.03
2022-12-15T23:22:16.648Z,71.05
2022-12-15T23:25:38.669Z,69.82
2022-12-15T23:29:01.425Z,70.45
2022-12-15T23:32:23.390Z,70.35
2022-12-15T23:35:45.698Z,70.67
2022-12-15T23:39:06.842Z,70.29
2022-12-15T23:42:28.611Z,70.99
2022-12-15T23:45:59.082Z,69.95
2022-12-15T23:49:20.803Z,71.23
2022-12-15T23:52:42.863Z,70.79
2022-12-15T23:56:09.592Z,70.62
2022-12-15T23:59:31.410Z,71.04
